Latest Weather Observations for Glen Innes Airport

IDN60801

Issued at 5:02 pm EDT Monday 18 February 2019 (issued every 10 minutes, with the page automatically refreshed every 10 minutes)

About weather observations | Map of weather stations | Latest weather observations for NSW | Other Formats
Station Details ID: 056243 Name: GLEN INNES AIRPORT AWS Lat: -29.68 Lon: 151.69 Height: 1044.3 m
Data from the previous 72 hours. | See also: Recent months at Glen Innes Airport
Date/Time
EDT
Temp
°C
App
Temp
°C
Dew
Point
°C
Rel
Hum
%
Delta-T
°C
Wind Press
QNH
hPa
Press
MSL
hPa
Rain since
9am
mm
Dir  Spd
km/h
Gust
km/h
Spd
kts
Gust
kts
18/05:00pm 31.5 28.8 3.5 17 15.0 S 7 17 4 9 1012.5 1006.8 0.0
18/04:30pm 31.8 27.3 0.0 13 16.1 S 13 32 7 17 1012.3 1006.5 0.0
18/04:00pm 31.5 27.0 -0.2 13 16.0 ENE 13 24 7 13 1012.6 1006.9 0.0
18/03:30pm 32.1 27.8 1.3 14 16.0 ESE 13 22 7 12 1013.1 1007.3 0.0
18/03:00pm 31.3 27.5 -0.4 13 15.9 SW 9 19 5 10 1013.5 1007.8 0.0
18/02:30pm 30.5 26.8 0.0 14 15.4 NE 9 19 5 10 1013.9 1008.1 0.0
18/02:00pm 30.8 26.4 0.2 14 15.5 SE 13 19 7 10 1014.5 1008.8 0.0
18/01:30pm 29.3 23.1 0.0 15 14.6 ESE 22 32 12 17 1015.0 1009.2 0.0
18/01:00pm 28.8 23.3 2.1 18 13.8 ESE 20 33 11 18 1015.4 1009.7 0.0
18/12:30pm 29.6 25.5 4.3 20 13.6 SE 15 35 8 19 1015.7 1010.0 0.0
18/12:00pm 27.6 23.8 4.0 22 12.5 SE 13 26 7 14 1016.2 1010.5 0.0
18/11:30am 26.5 23.2 4.3 24 11.7 ESE 11 22 6 12 1016.7 1011.0 0.0
18/11:00am 26.3 22.9 4.1 24 11.7 SE 11 22 6 12 1017.2 1011.5 0.0
18/10:30am 24.3 22.7 8.7 37 8.8 SE 7 11 4 6 1017.4 1011.7 0.0
18/10:00am 22.5 20.7 9.6 44 7.3 ESE 9 13 5 7 1017.6 1011.9 0.0
18/09:30am 20.2 19.0 11.7 58 5.0 SE 9 19 5 10 1017.6 1011.9 0.0
18/09:00am 18.8 17.4 12.1 65 3.9 SSE 11 15 6 8 1017.7 1012.1 0.0
18/08:30am 17.3 15.6 12.4 73 2.9 SE 13 15 7 8 1017.5 1011.8 0.0
18/08:00am 15.8 14.1 12.5 81 1.9 SE 13 17 7 9 1017.3 1011.6 0.0
18/07:30am 14.3 12.6 12.3 88 1.1 SE 13 17 7 9 1017.0 1011.3 0.0
18/07:00am 13.0 11.1 11.9 93 0.6 SE 13 17 7 9 1016.6 1010.9 0.0
18/06:30am 12.0 10.5 10.7 92 0.7 SE 9 13 5 7 1016.5 1010.8 0.0
18/06:00am 12.0 10.5 10.4 90 0.9 E 9 13 5 7 1016.3 1010.6 0.0
18/05:30am 12.7 9.8 11.1 90 0.9 ESE 17 19 9 10 1016.3 1010.6 0.0
18/05:00am 12.6 9.9 10.5 87 1.2 ESE 15 17 8 9 1016.3 1010.6 0.0
18/04:30am 13.7 11.2 11.0 84 1.5 ESE 15 20 8 11 1016.3 1010.6 0.0
18/04:22am 14.2 11.1 11.5 84 1.5 ESE 19 20 10 11 1016.3 1010.6 0.0
18/04:00am 15.0 12.0 12.1 83 1.7 ESE 19 24 10 13 1016.4 1010.7 0.0
18/03:30am 15.2 11.4 12.3 83 1.7 ESE 24 30 13 16 1016.6 1010.9 0.0
18/03:00am 15.2 12.1 12.3 83 1.7 ESE 20 28 11 15 1016.8 1011.2 0.0
18/02:30am 15.1 12.1 12.4 84 1.6 E 20 28 11 15 1017.2 1011.5 0.0
18/02:00am 14.6 13.0 12.8 89 1.0 ESE 13 17 7 9 1017.4 1011.7 0.0
18/01:40am 13.6 11.7 11.8 89 1.0 ESE 13 15 7 8 1017.6 1011.9 0.0
18/01:30am 13.5 11.5 11.6 88 1.1 SE 13 13 7 7 1017.6 1011.9 0.0
18/01:00am 13.9 11.6 11.6 86 1.3 ESE 15 17 8 9 1017.7 1012.1 0.0
18/12:30am 14.8 12.7 12.5 86 1.3 ESE 15 19 8 10 1017.9 1012.3 0.0
18/12:00am 15.0 12.8 12.1 83 1.7 ESE 15 20 8 11 1018.2 1012.5 0.0
 
Date/Time
EDT
Temp
°C
App
Temp
°C
Dew
Point
°C
Rel
Hum
%
Delta-T
°C
Wind Press
QNH
hPa
Press
MSL
hPa
Rain since
9am
mm
Dir  Spd
km/h
Gust
km/h
Spd
kts
Gust
kts
17/11:30pm 15.7 13.0 13.0 84 1.6 ESE 19 22 10 12 1018.2 1012.5 0.0
17/11:00pm 16.1 13.7 12.8 81 1.9 ESE 17 20 9 11 1018.2 1012.5 0.0
17/10:30pm 16.7 14.3 12.8 78 2.3 E 17 22 9 12 1018.2 1012.5 0.0
17/10:00pm 17.4 14.6 12.5 73 2.9 ESE 19 24 10 13 1018.1 1012.4 0.0
17/09:30pm 18.3 15.3 12.1 67 3.6 ESE 19 24 10 13 1017.8 1012.2 0.0
17/09:00pm 19.6 16.5 11.6 60 4.6 E 19 28 10 15 1017.3 1011.6 0.0
17/08:30pm 20.9 17.1 11.3 54 5.6 E 22 33 12 18 1016.7 1011.0 0.0
17/08:00pm 21.4 18.1 10.9 51 6.1 E 19 24 10 13 1016.3 1010.6 0.0
17/07:30pm 22.8 18.5 10.6 46 7.1 E 24 32 13 17 1015.8 1010.1 0.0
17/07:00pm 23.9 19.4 10.2 42 7.9 E 24 32 13 17 1015.3 1009.6 0.0
17/06:30pm 25.5 20.0 9.3 36 9.3 E 28 35 15 19 1015.1 1009.3 0.0
17/06:00pm 27.5 23.3 9.8 33 10.3 ESE 22 30 12 16 1014.8 1009.1 0.0
17/05:30pm 28.2 24.6 8.5 29 11.3 ENE 17 24 9 13 1014.7 1009.0 0.0
17/05:00pm 28.9 25.1 7.5 26 12.1 ENE 17 22 9 12 1014.8 1009.1 0.0
17/04:30pm 28.3 24.4 8.6 29 11.3 E 19 24 10 13 1015.0 1009.2 0.0
17/04:00pm 29.3 26.3 7.8 26 12.2 NNE 13 35 7 19 1015.1 1009.3 0.0
17/03:30pm 28.3 26.6 7.5 27 11.7 WSW 6 15 3 8 1015.5 1009.8 0.0
17/03:00pm 28.0 25.7 7.3 27 11.6 WNW 9 17 5 9 1016.0 1010.3 0.0
17/02:30pm 27.8 25.7 8.1 29 11.2 ENE 9 20 5 11 1016.5 1010.8 0.0
17/02:00pm 26.8 24.3 8.3 31 10.5 W 11 17 6 9 1017.1 1011.4 0.0
17/01:30pm 27.2 24.8 10.0 34 10.1 WNW 13 22 7 12 1017.5 1011.8 0.0
17/01:00pm 25.5 23.8 9.7 37 9.1 N 9 15 5 8 1017.9 1012.3 0.0
17/12:30pm 24.8 23.2 10.3 40 8.4 ESE 9 24 5 13 1018.6 1013.0 0.0
17/12:00pm 23.7 21.3 10.0 42 7.9 SSE 13 22 7 12 1019.1 1013.4 0.0
17/11:30am 23.7 21.7 11.4 46 7.2 ESE 13 22 7 12 1019.5 1013.9 0.0
17/11:00am 21.8 19.9 10.6 49 6.4 E 11 20 6 11 1019.8 1014.2 0.0
17/10:30am 20.8 18.7 11.2 54 5.6 E 13 24 7 13 1019.9 1014.3 0.0
17/10:00am 19.5 17.2 11.8 61 4.5 ESE 15 20 8 11 1020.0 1014.4 0.0
17/09:30am 18.3 15.7 12.1 67 3.6 ESE 17 22 9 12 1020.0 1014.4 0.0
17/09:19am 17.5 14.8 11.8 69 3.3 E 17 24 9 13 1019.9 1014.3 0.0
17/09:00am 16.5 13.4 12.1 75 2.5 ESE 20 26 11 14 1020.0 1014.4 0.0
17/08:30am 15.3 11.9 11.3 77 2.3 ESE 20 26 11 14 1019.8 1014.2 0.0
17/08:00am 14.8 12.5 11.6 81 1.8 ESE 15 19 8 10 1019.8 1014.2 0.0
17/07:52am 14.8 13.3 11.8 82 1.7 ESE 11 17 6 9 1019.6 1014.0 0.0
17/07:30am 14.3 12.7 11.5 83 1.6 SE 11 13 6 7 1019.2 1013.5 0.0
17/07:21am 14.0 12.4 11.7 86 1.3 SE 11 17 6 9 1019.2 1013.5 0.0
17/07:00am 13.0 10.5 11.2 89 1.0 ESE 15 17 8 9 1019.1 1013.4 0.0
17/06:57am 12.8 9.9 11.0 89 1.0 ESE 17 24 9 13 1018.9 1013.3 0.0
17/06:56am 12.8 9.9 10.9 88 1.1 ESE 17 24 9 13 1018.9 1013.3 0.0
17/06:39am 13.2 10.5 11.8 91 0.8 ESE 17 24 9 13 1018.8 1013.2 0.0
17/06:30am 11.8 9.0 10.0 89 1.0 ESE 15 17 8 9 1018.7 1013.1 0.0
17/06:10am 12.4 10.1 10.3 87 1.1 ESE 13 19 7 10 1018.5 1012.8 0.0
17/06:00am 12.9 10.3 10.8 87 1.2 ESE 15 19 8 10 1018.4 1012.7 0.0
17/05:38am 13.3 10.5 11.4 88 1.1 ESE 17 20 9 11 1018.4 1012.7 0.0
17/05:34am 13.2 10.3 11.1 87 1.2 ESE 17 20 9 11 1018.4 1012.7 0.0
17/05:30am 13.1 10.5 10.8 86 1.3 ESE 15 20 8 11 1018.4 1012.7 0.0
17/05:00am 14.1 11.4 11.6 85 1.4 ESE 17 20 9 11 1018.4 1012.7 0.0
17/04:30am 13.3 10.4 11.0 86 1.3 SE 17 20 9 11 1018.6 1013.0 0.0
17/04:22am 13.4 10.2 11.3 87 1.2 SE 19 20 10 11 1018.6 1013.0 0.0
17/04:00am 12.9 10.2 10.4 85 1.4 ESE 15 19 8 10 1018.7 1013.1 0.0
17/03:35am 13.6 10.1 10.8 83 1.6 ESE 20 26 11 14 1018.8 1013.2 0.0
17/03:30am 13.7 10.2 10.9 83 1.6 ESE 20 26 11 14 1018.8 1013.2 0.0
17/03:00am 14.3 11.2 11.5 83 1.6 ESE 19 24 10 13 1019.2 1013.5 0.0
17/02:30am 14.5 11.1 11.3 81 1.8 ESE 20 30 11 16 1019.4 1013.7 0.0
17/02:00am 14.7 11.3 11.3 80 1.9 ESE 20 28 11 15 1019.8 1014.2 0.0
17/01:30am 14.6 10.5 11.4 81 1.8 ESE 24 32 13 17 1020.2 1014.5 0.0
17/01:00am 13.8 10.9 11.0 83 1.6 ESE 17 24 9 13 1020.5 1014.9 0.0
17/12:58am 13.7 10.8 11.0 84 1.5 ESE 17 24 9 13 1020.5 1014.9 0.0
17/12:30am 13.5 10.5 10.5 82 1.7 ESE 17 22 9 12 1020.9 1015.3 0.0
17/12:00am 14.1 10.2 10.7 80 1.9 ESE 22 30 12 16 1021.2 1015.5 0.0
 
Date/Time
EDT
Temp
°C
App
Temp
°C
Dew
Point
°C
Rel
Hum
%
Delta-T
°C
Wind Press
QNH
hPa
Press
MSL
hPa
Rain since
9am
mm
Dir  Spd
km/h
Gust
km/h
Spd
kts
Gust
kts
16/11:30pm 14.1 10.4 10.3 78 2.1 E 20 26 11 14 1021.3 1015.7 0.0
16/11:00pm 14.7 11.0 10.3 75 2.4 ESE 20 28 11 15 1021.3 1015.7 0.0
16/10:30pm 14.9 10.9 10.3 74 2.5 ESE 22 28 12 15 1021.2 1015.5 0.0
16/10:00pm 15.7 11.4 10.7 72 2.8 E 24 33 13 18 1021.0 1015.4 0.0
16/09:30pm 16.1 12.1 10.4 69 3.2 E 22 32 12 17 1021.0 1015.4 0.0
16/09:00pm 17.1 13.2 10.7 66 3.6 E 22 30 12 16 1020.7 1015.1 0.0
16/08:30pm 18.2 14.5 10.1 59 4.5 E 20 32 11 17 1020.3 1014.6 0.0
16/08:00pm 19.2 15.2 9.1 52 5.6 E 20 30 11 16 1019.9 1014.3 0.0
16/07:30pm 20.6 15.1 9.2 48 6.4 E 28 35 15 19 1019.6 1014.0 0.0
16/07:00pm 22.3 17.4 8.4 41 7.7 E 24 33 13 18 1019.3 1013.6 0.0
16/06:30pm 23.9 19.2 7.9 36 8.9 E 22 28 12 15 1019.1 1013.4 0.0
16/06:00pm 24.9 20.1 7.5 33 9.6 ESE 22 30 12 16 1019.2 1013.5 0.0
16/05:30pm 25.2 21.3 7.3 32 9.9 ENE 17 24 9 13 1019.4 1013.7 0.0
16/05:00pm 26.1 23.1 7.7 31 10.3 ENE 13 24 7 13 1019.4 1013.7 0.0
16/04:30pm 25.2 22.3 6.4 30 10.2 NE 11 19 6 10 1019.6 1014.0 0.0
16/04:00pm 25.2 20.8 6.4 30 10.2 ENE 19 26 10 14 1019.7 1014.1 0.0
16/03:30pm 25.6 22.3 6.3 29 10.5 SE 13 22 7 12 1020.0 1014.4 0.0
16/03:00pm 24.7 21.0 6.4 31 9.9 ENE 15 26 8 14 1020.5 1014.9 0.0
16/02:30pm 25.0 22.5 6.7 31 10.0 ENE 9 20 5 11 1020.8 1015.2 0.0
16/02:00pm 24.3 20.3 6.6 32 9.6 E 17 26 9 14 1021.4 1015.8 0.0
16/01:30pm 23.3 19.2 7.8 37 8.6 ESE 19 28 10 15 1021.9 1016.3 0.0
16/01:00pm 22.9 19.0 7.1 36 8.6 ESE 17 30 9 16 1022.3 1016.7 0.0
16/12:30pm 22.5 19.2 8.2 40 7.9 E 15 24 8 13 1022.7 1017.1 0.0
16/12:00pm 21.4 17.1 8.0 42 7.3 ENE 20 35 11 19 1023.0 1017.5 0.0
16/11:30am 20.9 16.1 8.9 46 6.7 ENE 24 35 13 19 1023.1 1017.6 0.0
16/11:00am 21.0 17.1 9.6 48 6.4 E 20 35 11 19 1023.5 1017.9 0.0
16/10:30am 19.3 13.6 8.3 49 6.0 E 28 41 15 22 1023.5 1017.9 0.0
16/10:00am 18.7 12.8 9.2 54 5.2 ESE 30 37 16 20 1023.5 1017.9 0.0
16/09:30am 17.7 11.3 9.3 58 4.6 E 33 41 18 22 1023.5 1017.9 0.0
16/09:00am 17.3 11.1 9.5 60 4.3 ESE 32 48 17 26 1023.4 1017.8 0.0
16/08:30am 15.9 10.4 9.1 64 3.7 ESE 28 43 15 23 1023.1 1017.6 0.0
16/08:00am 14.5 9.0 9.1 70 2.9 ESE 28 35 15 19 1022.9 1017.4 0.0
16/07:30am 13.0 8.2 8.9 76 2.2 ESE 24 32 13 17 1022.6 1017.0 0.0
16/07:00am 11.7 7.8 8.6 81 1.6 SE 19 24 10 13 1022.5 1016.9 0.0
16/06:30am 11.0 7.5 8.6 85 1.3 SE 17 22 9 12 1022.4 1016.8 0.0
16/06:00am 11.0 7.0 8.2 83 1.4 ESE 19 22 10 12 1022.2 1016.6 0.0
16/05:30am 10.9 7.2 7.8 81 1.6 ESE 17 22 9 12 1021.9 1016.3 0.0
16/05:00am 10.9 5.8 7.6 80 1.7 ESE 24 28 13 15 1021.7 1016.1 0.0
16/04:30am 11.3 7.0 7.8 79 1.8 SE 20 26 11 14 1021.8 1016.2 0.0
16/04:00am 10.9 6.6 7.8 81 1.6 ESE 20 24 11 13 1021.9 1016.3 0.0
16/03:30am 10.8 6.6 7.3 79 1.8 ESE 19 22 10 12 1022.4 1016.8 0.0
16/03:00am 11.8 7.5 7.7 76 2.1 ESE 20 28 11 15 1022.7 1017.1 0.0
16/02:30am 12.1 5.8 7.6 74 2.3 ESE 30 37 16 20 1022.7 1017.1 0.0
16/02:00am 11.9 7.2 7.8 76 2.1 ESE 22 28 12 15 1023.3 1017.7 0.0
16/01:30am 12.3 7.1 7.4 72 2.5 ESE 24 32 13 17 1023.6 1018.0 0.0
16/01:00am 13.2 5.9 7.4 68 3.0 ESE 35 44 19 24 1023.8 1018.3 0.0
16/12:30am 13.2 7.3 7.6 69 2.9 ESE 28 35 15 19 1024.3 1018.7 0.0
16/12:00am 13.6 7.8 8.0 69 2.9 ESE 28 41 15 22 1024.3 1018.7 0.0
 
Date/Time
EDT
Temp
°C
App
Temp
°C
Dew
Point
°C
Rel
Hum
%
Delta-T
°C
Wind Press
QNH
hPa
Press
MSL
hPa
Rain since
9am
mm
Dir  Spd
km/h
Gust
km/h
Spd
kts
Gust
kts
15/11:30pm 14.0 8.5 9.2 73 2.6 ESE 28 39 15 21 1024.5 1018.9 0.0
15/11:00pm 14.2 8.9 10.0 76 2.3 E 28 35 15 19 1024.5 1018.9 0.0
15/10:30pm 14.2 9.7 10.0 76 2.3 E 24 32 13 17 1024.6 1019.0 0.0
15/10:00pm 14.7 9.8 9.9 73 2.6 E 26 32 14 17 1024.4 1018.8 0.0
15/09:30pm 15.3 10.7 9.7 69 3.1 E 24 32 13 17 1024.1 1018.6 0.0
15/09:00pm 16.0 11.3 9.2 64 3.7 E 24 35 13 19 1023.8 1018.3 0.0
15/08:30pm 16.7 12.3 9.1 61 4.1 E 22 30 12 16 1023.7 1018.1 0.0
15/08:00pm 17.7 11.4 8.8 56 4.8 E 32 39 17 21 1023.1 1017.6 0.0
15/07:30pm 18.9 12.9 8.8 52 5.5 E 30 39 16 21 1022.9 1017.4 0.0
15/07:00pm 20.4 14.3 8.1 45 6.7 E 30 37 16 20 1022.6 1017.0 0.0
15/06:30pm 21.7 15.8 7.5 40 7.7 E 28 37 15 20 1022.2 1016.6 0.0
15/06:00pm 22.6 16.5 6.8 36 8.5 E 28 39 15 21 1022.0 1016.4 0.0
15/05:30pm 23.4 17.7 6.7 34 9.1 ENE 26 37 14 20 1021.8 1016.2 0.0

Other formats

Comma delimited format used in spreadsheet applications
http://www.bom.gov.au/fwo/IDN60801/IDN60801.94588.axf

JavaScript Object Notation format (JSON) in row-major order
http://www.bom.gov.au/fwo/IDN60801/IDN60801.94588.json

Data quality

Most of these data are generated automatically and are frequently updated. Quality checks on data are not normally performed. It is possible for incorrect values to appear. Refer to information at About Latest Weather Observations and please check the disclaimer before using these data.